Flugplatz Halle-Oppin

Für EDAQ sind keine METAR/TAF Berichte vorhanden.
Es werden die Flugwettermeldungen vom Flugplatz Leipzig Halle in 19 km Entfernung angezeigt.

Bericht für EDDP

vom 07.12. um 18:20 UTC

Wind 6 kt aus 160°

Sichtweite 10 km oder mehr

aufgebrochene Bewölkung in 1600 ft

Temperatur 2.0°C

Taupunkt 1.0°C

Luftfeuchtigkeit 93%

Luftdruck 1009 hPa

keine wesentliche Wetteränderung innerhalb den nächsten 2 Stunden zu erwarten

EDDP 071820Z 16006KT 9999 BKN016 02/01 Q1009 NOSIG

Prognose für EDDP

vom 07.12. um 17:00 UTC

Zwischen 18:00 UTC und 18:00 UTC

Wind 6 kt aus 150°

Sichtweite 10 km oder mehr

gering bewölkt in 1500 ft

aufgebrochene Bewölkung in 2500 ft


Am 08.12. zwischen 08:00 UTC und 18:00 UTC zeitweise

Sichtweite 4000 m

schwacher Schnee

schwacher Regen

aufgebrochene Bewölkung in 1200 ft

TAF EDDP 071700Z 0718/0818 15006KT 9999 FEW015 BKN025 TEMPO 0808/0818 4000 -SNRA BKN012
Impressum